Time;durP1;ratioP1;P1;durP2;ratioP2;P2;SDS_P1;SDS_P2;PMS_P1;PMS_P2;Temp;Humidity;BMP_temperature;BMP_pressure;BME280_temperature;BME280_humidity;BME280_pressure;Samples;Min_cycle;Max_cycle;Signal;HPM_P1;HPM_P2
2022/04/10 00:00:27;;;;;;;;;;;3.50;99.90;;;;;;5113998;27;19915;-81
2022/04/10 00:02:53;;;;;;;;;;;3.50;99.90;;;;;;5118249;27;19923;-82
2022/04/10 00:05:18;;;;;;;;;;;3.50;99.90;;;;;;5122405;27;19920;-81
2022/04/10 00:07:44;;;;;;;;;;;3.50;99.90;;;;;;5118099;27;19916;-82
2022/04/10 00:10:09;;;;;;;;;;;3.50;99.90;;;;;;5110873;27;20004;-83
2022/04/10 00:12:35;;;;;;;;;;;4.50;99.90;;;;;;5122205;27;19916;-82
2022/04/10 00:15:02;;;;;;;;;;;3.50;99.90;;;;;;5115723;27;19916;-82
2022/04/10 00:17:28;;;;;;;;;;;3.50;99.90;;;;;;5119995;27;19923;-83
2022/04/10 00:19:54;;;;;;;;;;;3.50;99.90;;;;;;5101359;28;20303;-83
2022/04/10 00:22:19;;;;;;;;;;;3.50;99.90;;;;;;5100492;28;19920;-82
2022/04/10 00:24:45;;;;;;;;;;;3.50;99.90;;;;;;5116232;27;20375;-83
2022/04/10 00:27:13;;;;;;;;;;;3.50;99.90;;;;;;5121069;27;19998;-83
2022/04/10 00:29:40;;;;;;;;;;;3.50;99.90;;;;;;5118945;28;20084;-82
2022/04/10 00:32:06;;;;;;;;;;;3.50;99.90;;;;;;5119961;27;19963;-82
2022/04/10 00:34:31;;;;;;;;;;;3.50;99.90;;;;;;5130171;27;19919;-83
2022/04/10 00:36:57;;;;;;;;;;;3.50;99.90;;;;;;5121745;28;20606;-82
2022/04/10 00:39:22;;;;;;;;;;;3.50;99.90;;;;;;5105417;28;19922;-82
2022/04/10 00:41:49;;;;;;;;;;;3.50;99.90;;;;;;5105850;28;20356;-83
2022/04/10 00:44:15;;;;;;;;;;;3.50;99.90;;;;;;5101399;28;19915;-83
2022/04/10 00:46:40;;;;;;;;;;;3.80;99.90;;;;;;5117642;28;20377;-83
2022/04/10 00:49:06;;;;;;;;;;;3.60;99.90;;;;;;5126685;27;19923;-82
2022/04/10 00:51:41;;;;;;;;;;;3.60;99.90;;;;;;5124363;27;19919;-83
2022/04/10 00:54:08;;;;;;;;;;;4.20;99.90;;;;;;5129702;27;19916;-82
2022/04/10 00:56:34;;;;;;;;;;;3.60;99.90;;;;;;5126590;27;20259;-83
2022/04/10 00:59:01;;;;;;;;;;;3.80;99.90;;;;;;5119364;27;19920;-83
2022/04/10 01:01:27;;;;;;;;;;;3.50;99.90;;;;;;5126789;27;19915;-83
2022/04/10 01:03:53;;;;;;;;;;;3.40;99.90;;;;;;5125825;27;20286;-83
2022/04/10 01:06:18;;;;;;;;;;;3.40;99.90;;;;;;5124577;27;19919;-83
2022/04/10 01:08:44;;;;;;;;;;;4.00;99.90;;;;;;5114475;27;20328;-82
2022/04/10 01:11:09;;;;;;;;;;;4.00;99.90;;;;;;5131587;27;19974;-82
2022/04/10 01:13:35;;;;;;;;;;;3.30;99.90;;;;;;5105705;28;19922;-82
2022/04/10 01:16:01;;;;;;;;;;;3.80;99.90;;;;;;5127663;27;19915;-81
2022/04/10 01:18:27;;;;;;;;;;;3.20;99.90;;;;;;5126115;27;19921;-82
2022/04/10 01:20:52;;;;;;;;;;;3.20;99.90;;;;;;5121561;27;19915;-82
2022/04/10 01:23:18;;;;;;;;;;;3.10;99.90;;;;;;5115972;27;19923;-82
2022/04/10 01:25:44;;;;;;;;;;;3.10;99.90;;;;;;5125462;27;19923;-82
2022/04/10 01:28:10;;;;;;;;;;;3.10;99.90;;;;;;5125299;27;20428;-82
2022/04/10 01:30:36;;;;;;;;;;;3.10;99.90;;;;;;5115850;27;19920;-83
2022/04/10 01:33:01;;;;;;;;;;;3.10;99.90;;;;;;5120839;27;19924;-82
2022/04/10 01:35:27;;;;;;;;;;;3.00;99.90;;;;;;5118091;27;20271;-82
2022/04/10 01:37:53;;;;;;;;;;;3.00;99.90;;;;;;5127100;27;19916;-82
2022/04/10 01:40:19;;;;;;;;;;;3.00;99.90;;;;;;5119301;27;20256;-82
2022/04/10 01:42:45;;;;;;;;;;;3.00;99.90;;;;;;5126040;27;19926;-82
2022/04/10 01:45:10;;;;;;;;;;;3.10;99.90;;;;;;5123383;27;19925;-82
2022/04/10 01:47:36;;;;;;;;;;;3.00;99.90;;;;;;5106074;27;20423;-82
2022/04/10 01:50:02;;;;;;;;;;;3.30;99.90;;;;;;5121853;27;20007;-82
2022/04/10 01:52:27;;;;;;;;;;;3.00;99.90;;;;;;5102853;27;19915;-82
2022/04/10 01:54:53;;;;;;;;;;;2.90;99.90;;;;;;5123971;27;19990;-82
2022/04/10 01:57:19;;;;;;;;;;;2.90;99.90;;;;;;5115479;27;19923;-82
2022/04/10 01:59:44;;;;;;;;;;;2.90;99.90;;;;;;5114280;27;19923;-82
2022/04/10 02:02:10;;;;;;;;;;;3.00;99.90;;;;;;5122933;27;19919;-82
2022/04/10 02:04:35;;;;;;;;;;;3.00;99.90;;;;;;5121589;27;20366;-82
2022/04/10 02:07:01;;;;;;;;;;;2.90;99.90;;;;;;5126375;27;19995;-82
2022/04/10 02:09:26;;;;;;;;;;;3.10;99.90;;;;;;5121763;27;19923;-83
2022/04/10 02:11:52;;;;;;;;;;;3.80;99.90;;;;;;5110688;27;19973;-83
2022/04/10 02:14:18;;;;;;;;;;;2.90;99.90;;;;;;5128048;27;19916;-82
2022/04/10 02:16:43;;;;;;;;;;;2.90;99.90;;;;;;5124764;27;20281;-83
2022/04/10 02:19:09;;;;;;;;;;;2.80;99.90;;;;;;5123778;27;19915;-83
2022/04/10 02:21:34;;;;;;;;;;;2.90;99.90;;;;;;5122241;27;20050;-82
2022/04/10 02:24:00;;;;;;;;;;;3.40;99.90;;;;;;5112499;28;19923;-82
2022/04/10 02:26:25;;;;;;;;;;;3.00;99.90;;;;;;5126387;27;19920;-83
2022/04/10 02:28:51;;;;;;;;;;;3.70;99.90;;;;;;5115233;27;20500;-82
2022/04/10 02:31:17;;;;;;;;;;;3.00;99.90;;;;;;5120119;27;20375;-83
2022/04/10 02:33:42;;;;;;;;;;;3.40;99.90;;;;;;5127368;27;19915;-82
2022/04/10 02:36:08;;;;;;;;;;;3.00;99.90;;;;;;5113437;27;19968;-82
2022/04/10 02:38:33;;;;;;;;;;;3.10;99.90;;;;;;5116638;27;19915;-83
2022/04/10 02:40:59;;;;;;;;;;;3.10;99.90;;;;;;5126973;27;20008;-83
2022/04/10 02:43:24;;;;;;;;;;;3.50;99.90;;;;;;5119836;27;20005;-83
2022/04/10 02:45:50;;;;;;;;;;;3.10;99.90;;;;;;5110982;27;19968;-83
2022/04/10 02:48:15;;;;;;;;;;;3.90;99.90;;;;;;5127514;27;19961;-83
2022/04/10 02:50:41;;;;;;;;;;;3.00;99.90;;;;;;5100497;28;19915;-82
2022/04/10 02:53:07;;;;;;;;;;;3.30;99.90;;;;;;5114605;27;19930;-83
2022/04/10 02:55:33;;;;;;;;;;;3.00;99.90;;;;;;5122239;27;19915;-83
2022/04/10 02:57:58;;;;;;;;;;;3.10;99.90;;;;;;5103833;27;19915;-83
2022/04/10 03:00:24;;;;;;;;;;;4.00;99.90;;;;;;5120129;27;20256;-83
2022/04/10 03:02:49;;;;;;;;;;;3.00;99.90;;;;;;5124313;27;19919;-82
2022/04/10 03:05:15;;;;;;;;;;;3.00;99.90;;;;;;5118201;27;19931;-83
2022/04/10 03:07:41;;;;;;;;;;;3.10;99.90;;;;;;5121828;27;20358;-83
2022/04/10 03:10:06;;;;;;;;;;;3.10;99.90;;;;;;5119425;27;20619;-83
2022/04/10 03:12:32;;;;;;;;;;;3.00;99.90;;;;;;5123594;27;19923;-83
2022/04/10 03:14:57;;;;;;;;;;;3.00;99.90;;;;;;5131588;27;20281;-82
2022/04/10 03:17:23;;;;;;;;;;;3.00;99.90;;;;;;5124081;27;20034;-82
2022/04/10 03:19:48;;;;;;;;;;;3.70;99.90;;;;;;5099478;27;19923;-82
2022/04/10 03:22:14;;;;;;;;;;;2.90;99.90;;;;;;5120251;27;19916;-83
2022/04/10 03:24:40;;;;;;;;;;;3.80;99.90;;;;;;5120466;27;19967;-82
2022/04/10 03:27:05;;;;;;;;;;;2.90;99.90;;;;;;5124374;27;19916;-82
2022/04/10 03:29:31;;;;;;;;;;;3.30;99.90;;;;;;5123979;27;19924;-82
2022/04/10 03:31:56;;;;;;;;;;;3.40;99.90;;;;;;5113933;27;19969;-82
2022/04/10 03:34:22;;;;;;;;;;;2.80;99.90;;;;;;5104573;27;19919;-82
2022/04/10 03:36:48;;;;;;;;;;;3.30;99.90;;;;;;5120886;27;20438;-83
2022/04/10 03:39:13;;;;;;;;;;;3.10;99.90;;;;;;5126916;27;19916;-83
2022/04/10 03:41:39;;;;;;;;;;;3.00;99.90;;;;;;5115947;27;19916;-83
2022/04/10 03:44:04;;;;;;;;;;;3.00;99.90;;;;;;5123633;27;20010;-82
2022/04/10 03:46:30;;;;;;;;;;;3.00;99.90;;;;;;5124942;27;20377;-82
2022/04/10 03:48:55;;;;;;;;;;;3.10;99.90;;;;;;5120780;27;19916;-82
2022/04/10 03:51:21;;;;;;;;;;;3.60;99.90;;;;;;5128530;27;19926;-82
2022/04/10 03:53:47;;;;;;;;;;;3.20;99.90;;;;;;5101472;27;20061;-82
2022/04/10 03:56:12;;;;;;;;;;;3.20;99.90;;;;;;5122372;27;19916;-83
2022/04/10 03:58:38;;;;;;;;;;;3.20;99.90;;;;;;5115345;27;19922;-82
2022/04/10 04:01:03;;;;;;;;;;;5.10;99.90;;;;;;5086762;28;20346;-82
2022/04/10 04:03:29;;;;;;;;;;;3.20;99.90;;;;;;5120317;27;19998;-82
2022/04/10 04:05:55;;;;;;;;;;;3.60;99.90;;;;;;5100896;28;19919;-82
2022/04/10 04:08:21;;;;;;;;;;;3.10;99.90;;;;;;5125972;27;20351;-82
2022/04/10 04:10:46;;;;;;;;;;;3.10;99.90;;;;;;5119411;27;19922;-82
2022/04/10 04:13:12;;;;;;;;;;;3.10;99.90;;;;;;5120740;27;19975;-82
2022/04/10 04:15:38;;;;;;;;;;;3.10;99.90;;;;;;5120280;27;19984;-82
2022/04/10 04:18:04;;;;;;;;;;;3.10;99.90;;;;;;5119395;27;20022;-82
2022/04/10 04:20:29;;;;;;;;;;;3.10;99.90;;;;;;5114642;28;19976;-83
2022/04/10 04:22:55;;;;;;;;;;;3.00;99.90;;;;;;5101783;28;20294;-82
2022/04/10 04:25:21;;;;;;;;;;;3.00;99.90;;;;;;5117848;27;20348;-83
2022/04/10 04:27:46;;;;;;;;;;;3.00;99.90;;;;;;5107555;28;19923;-81
2022/04/10 04:30:12;;;;;;;;;;;3.10;99.90;;;;;;5103571;28;19919;-81
2022/04/10 04:32:38;;;;;;;;;;;2.90;99.90;;;;;;5108222;28;19968;-82
2022/04/10 04:35:03;;;;;;;;;;;3.00;99.90;;;;;;5120525;28;19915;-82
2022/04/10 04:37:29;;;;;;;;;;;2.80;99.90;;;;;;5108929;28;20443;-83
2022/04/10 04:39:55;;;;;;;;;;;2.80;99.90;;;;;;5125069;28;19997;-83
2022/04/10 04:42:20;;;;;;;;;;;2.80;99.90;;;;;;5125494;27;19919;-83
2022/04/10 04:44:46;;;;;;;;;;;2.80;99.90;;;;;;5114884;28;19931;-83
2022/04/10 04:47:11;;;;;;;;;;;2.80;99.90;;;;;;5105193;28;19925;-83
2022/04/10 04:49:37;;;;;;;;;;;3.40;99.90;;;;;;5084055;28;19954;-83
2022/04/10 04:52:02;;;;;;;;;;;2.70;99.90;;;;;;5095601;28;19919;-82
2022/04/10 04:54:28;;;;;;;;;;;2.70;99.90;;;;;;5119726;28;19915;-83
2022/04/10 04:56:54;;;;;;;;;;;2.70;99.90;;;;;;5117190;28;20332;-82
2022/04/10 04:59:19;;;;;;;;;;;3.50;99.90;;;;;;5125127;28;19919;-83
2022/04/10 05:01:45;;;;;;;;;;;2.70;99.90;;;;;;5106055;28;20400;-83
2022/04/10 05:04:11;;;;;;;;;;;2.70;99.90;;;;;;5128085;28;20255;-83
2022/04/10 05:06:37;;;;;;;;;;;3.10;99.90;;;;;;5122878;27;19927;-84
2022/04/10 05:09:02;;;;;;;;;;;2.80;99.90;;;;;;5122460;28;19998;-83
2022/04/10 05:11:28;;;;;;;;;;;2.80;99.90;;;;;;5118053;28;19915;-83
2022/04/10 05:13:54;;;;;;;;;;;2.80;99.90;;;;;;5123993;28;19915;-83
2022/04/10 05:16:19;;;;;;;;;;;2.70;99.90;;;;;;5114956;28;19919;-82
2022/04/10 05:18:45;;;;;;;;;;;2.80;99.90;;;;;;5116840;28;19919;-83
2022/04/10 05:21:11;;;;;;;;;;;3.90;99.90;;;;;;5113499;28;19920;-83
2022/04/10 05:23:36;;;;;;;;;;;2.80;99.90;;;;;;5122445;28;20299;-83
2022/04/10 05:26:02;;;;;;;;;;;3.70;99.90;;;;;;5121589;28;19927;-83
2022/04/10 05:28:28;;;;;;;;;;;2.80;99.90;;;;;;5124869;28;19915;-82
2022/04/10 05:30:54;;;;;;;;;;;2.80;99.90;;;;;;5111395;28;20359;-83
2022/04/10 05:33:19;;;;;;;;;;;4.20;99.90;;;;;;5120324;28;19916;-83
2022/04/10 05:35:47;;;;;;;;;;;2.90;99.90;;;;;;5124905;27;20362;-83
2022/04/10 05:38:12;;;;;;;;;;;3.00;99.90;;;;;;5111813;27;19969;-83
2022/04/10 05:40:38;;;;;;;;;;;3.00;99.90;;;;;;5114529;27;19950;-83
2022/04/10 05:43:03;;;;;;;;;;;4.00;99.90;;;;;;5122150;27;19922;-83
2022/04/10 05:45:29;;;;;;;;;;;3.10;99.90;;;;;;5121429;27;19919;-83
2022/04/10 05:47:54;;;;;;;;;;;3.10;99.90;;;;;;5112478;28;19916;-83
2022/04/10 05:50:20;;;;;;;;;;;3.40;99.90;;;;;;5124737;27;19973;-83
2022/04/10 05:52:46;;;;;;;;;;;3.40;99.90;;;;;;5121006;27;19923;-82
2022/04/10 05:55:13;;;;;;;;;;;3.50;99.90;;;;;;5129557;27;19926;-82
2022/04/10 05:57:39;;;;;;;;;;;4.00;99.90;;;;;;5127431;27;19916;-82
2022/04/10 06:00:05;;;;;;;;;;;3.80;99.90;;;;;;5122253;27;19915;-83
2022/04/10 06:02:31;;;;;;;;;;;3.50;99.90;;;;;;5123917;27;19940;-83
2022/04/10 06:04:56;;;;;;;;;;;3.70;99.90;;;;;;5117712;27;19920;-81
2022/04/10 06:07:22;;;;;;;;;;;3.50;99.90;;;;;;5108374;27;19931;-83
2022/04/10 06:09:47;;;;;;;;;;;3.90;99.90;;;;;;5125292;27;20320;-82
2022/04/10 06:12:13;;;;;;;;;;;3.50;99.90;;;;;;5116230;27;20371;-83
2022/04/10 06:14:39;;;;;;;;;;;3.60;99.90;;;;;;5129859;27;19915;-82
2022/04/10 06:17:04;;;;;;;;;;;3.70;99.90;;;;;;5122705;27;19915;-82
2022/04/10 06:19:30;;;;;;;;;;;3.70;99.90;;;;;;5105240;27;19915;-82
2022/04/10 06:21:56;;;;;;;;;;;3.70;99.90;;;;;;5121410;27;19973;-83
2022/04/10 06:24:21;;;;;;;;;;;4.20;99.90;;;;;;5124770;27;19919;-82
2022/04/10 06:26:49;;;;;;;;;;;3.90;99.90;;;;;;5120099;27;19919;-83
2022/04/10 06:29:15;;;;;;;;;;;3.70;99.90;;;;;;5132147;27;20367;-82
2022/04/10 06:31:41;;;;;;;;;;;3.70;99.90;;;;;;5117563;27;19968;-81
2022/04/10 06:34:06;;;;;;;;;;;3.80;99.90;;;;;;5130188;27;19915;-83
2022/04/10 06:36:32;;;;;;;;;;;4.00;99.90;;;;;;5125143;27;19915;-83
2022/04/10 06:38:57;;;;;;;;;;;3.90;99.90;;;;;;5122052;27;19915;-81
2022/04/10 06:41:23;;;;;;;;;;;3.60;99.90;;;;;;5104884;27;19915;-81
2022/04/10 06:43:49;;;;;;;;;;;3.80;99.90;;;;;;5125228;27;19916;-81
2022/04/10 06:46:14;;;;;;;;;;;3.60;99.90;;;;;;5119222;27;19920;-82
2022/04/10 06:48:40;;;;;;;;;;;3.70;99.90;;;;;;5122687;27;19919;-80
2022/04/10 06:51:05;;;;;;;;;;;3.90;99.90;;;;;;5106880;27;20278;-81
2022/04/10 06:53:31;;;;;;;;;;;4.30;99.90;;;;;;5124580;27;19919;-80
2022/04/10 06:55:56;;;;;;;;;;;4.50;99.90;;;;;;5119980;27;20379;-81
2022/04/10 06:58:22;;;;;;;;;;;4.70;99.90;;;;;;5119278;27;19919;-81
2022/04/10 07:00:48;;;;;;;;;;;4.80;99.90;;;;;;5119399;27;19931;-82
2022/04/10 07:03:14;;;;;;;;;;;5.40;99.90;;;;;;5107513;27;19915;-82
2022/04/10 07:05:40;;;;;;;;;;;6.00;99.90;;;;;;5121105;27;19951;-83
2022/04/10 07:08:07;;;;;;;;;;;6.60;99.90;;;;;;5099339;28;20278;-83
2022/04/10 07:10:33;;;;;;;;;;;7.30;99.90;;;;;;5124574;27;20445;-81
2022/04/10 07:12:58;;;;;;;;;;;7.80;99.90;;;;;;5121440;27;19931;-81
2022/04/10 07:15:24;;;;;;;;;;;8.20;99.90;;;;;;5106147;27;19915;-82
2022/04/10 07:17:50;;;;;;;;;;;8.50;99.90;;;;;;5121893;27;19994;-81
2022/04/10 07:20:15;;;;;;;;;;;8.60;99.90;;;;;;5107832;27;19915;-81
2022/04/10 07:25:26;;;;;;;;;;;8.40;99.90;;;;;;5123523;27;19926;-81
2022/04/10 07:27:51;;;;;;;;;;;8.70;99.90;;;;;;5119624;27;20554;-80
2022/04/10 07:30:17;;;;;;;;;;;8.60;99.90;;;;;;5123513;27;19959;-82
2022/04/10 07:32:49;;;;;;;;;;;8.00;99.90;;;;;;5124209;27;19926;-81
2022/04/10 07:35:15;;;;;;;;;;;7.70;99.90;;;;;;5116173;27;19920;-80
2022/04/10 07:37:40;;;;;;;;;;;7.90;99.90;;;;;;5123629;27;19933;-81
2022/04/10 07:40:06;;;;;;;;;;;8.50;99.90;;;;;;5121350;27;19916;-81
2022/04/10 07:42:31;;;;;;;;;;;8.70;99.90;;;;;;5101848;27;19950;-80
2022/04/10 07:44:59;;;;;;;;;;;9.10;99.90;;;;;;5119162;27;19919;-81
2022/04/10 07:47:28;;;;;;;;;;;9.60;99.90;;;;;;5120921;27;19969;-82
2022/04/10 07:49:54;;;;;;;;;;;9.60;99.90;;;;;;5128241;27;19916;-81
2022/04/10 07:52:20;;;;;;;;;;;9.80;99.90;;;;;;5126352;27;19934;-81
2022/04/10 07:54:46;;;;;;;;;;;10.10;99.90;;;;;;5127559;27;20006;-81
2022/04/10 07:57:12;;;;;;;;;;;10.10;99.90;;;;;;5126694;27;19919;-81
2022/04/10 07:59:37;;;;;;;;;;;10.20;99.90;;;;;;5125152;27;19915;-82
2022/04/10 08:02:03;;;;;;;;;;;10.50;99.90;;;;;;5127329;27;19979;-81
2022/04/10 08:04:28;;;;;;;;;;;10.50;99.90;;;;;;5127997;27;19919;-81
2022/04/10 08:06:54;;;;;;;;;;;10.80;99.90;;;;;;5119889;27;19919;-80
2022/04/10 08:09:20;;;;;;;;;;;11.00;99.90;;;;;;5117398;27;19920;-80
2022/04/10 08:11:45;;;;;;;;;;;11.10;99.90;;;;;;5116256;27;19915;-80
2022/04/10 08:14:11;;;;;;;;;;;11.30;99.90;;;;;;5102474;27;20375;-81
2022/04/10 08:16:36;;;;;;;;;;;11.30;99.90;;;;;;5113682;27;19915;-81
2022/04/10 08:19:02;;;;;;;;;;;11.00;99.90;;;;;;5122630;27;19927;-81
2022/04/10 08:21:28;;;;;;;;;;;10.90;99.90;;;;;;5100792;28;19923;-82
2022/04/10 08:23:53;;;;;;;;;;;11.10;99.90;;;;;;5119290;27;19915;-82
2022/04/10 08:26:19;;;;;;;;;;;11.30;99.90;;;;;;5124407;27;19920;-79
2022/04/10 08:28:44;;;;;;;;;;;10.80;99.90;;;;;;5125219;27;20002;-80
2022/04/10 08:31:10;;;;;;;;;;;11.00;99.90;;;;;;5090498;28;19924;-79
2022/04/10 08:33:35;;;;;;;;;;;11.10;99.90;;;;;;5103034;28;19920;-80
2022/04/10 08:36:01;;;;;;;;;;;10.60;99.90;;;;;;5127011;28;19919;-79
2022/04/10 08:38:27;;;;;;;;;;;10.20;99.90;;;;;;5118850;28;19915;-80
2022/04/10 08:40:57;;;;;;;;;;;10.00;99.90;;;;;;5118236;28;20281;-80
2022/04/10 08:43:23;;;;;;;;;;;10.40;99.90;;;;;;5127977;27;20349;-80
2022/04/10 08:45:48;;;;;;;;;;;10.90;99.90;;;;;;5102036;28;19959;-79
2022/04/10 08:48:15;;;;;;;;;;;11.20;99.90;;;;;;5100781;28;19922;-79
2022/04/10 08:50:41;;;;;;;;;;;11.40;99.90;;;;;;5116523;28;19915;-82
2022/04/10 08:53:07;;;;;;;;;;;11.40;99.90;;;;;;5117129;28;19969;-82
2022/04/10 08:55:32;;;;;;;;;;;11.40;99.90;;;;;;5124109;28;20368;-81
2022/04/10 08:58:01;;;;;;;;;;;11.40;99.90;;;;;;5122077;28;19919;-81
2022/04/10 09:00:26;;;;;;;;;;;11.90;99.90;;;;;;5120096;28;20539;-81
2022/04/10 09:02:52;;;;;;;;;;;12.30;99.90;;;;;;5125091;28;19963;-81
2022/04/10 09:05:19;;;;;;;;;;;12.30;99.90;;;;;;5115113;28;19934;-81
2022/04/10 09:08:03;;;;;;;;;;;12.40;99.90;;;;;;5118169;28;20015;-81
2022/04/10 09:10:29;;;;;;;;;;;12.10;99.90;;;;;;5119442;27;19919;-82
2022/04/10 09:12:54;;;;;;;;;;;12.00;99.90;;;;;;5116449;27;20398;-81
2022/04/10 09:15:20;;;;;;;;;;;11.70;99.90;;;;;;5124219;27;19919;-81
2022/04/10 09:17:55;;;;;;;;;;;11.50;99.90;;;;;;5128381;27;19923;-81
2022/04/10 09:20:20;;;;;;;;;;;11.50;99.90;;;;;;5129245;27;19919;-81
2022/04/10 09:22:46;;;;;;;;;;;12.00;99.90;;;;;;5127036;27;19922;-82
2022/04/10 09:25:13;;;;;;;;;;;12.40;99.90;;;;;;5115594;27;19927;-81
2022/04/10 09:27:48;;;;;;;;;;;12.50;99.90;;;;;;5116058;27;19919;-81
2022/04/10 09:30:15;;;;;;;;;;;12.60;99.90;;;;;;5124676;27;20316;-81
2022/04/10 09:32:43;;;;;;;;;;;12.80;99.90;;;;;;5119573;27;19967;-82
2022/04/10 09:35:10;;;;;;;;;;;13.40;99.90;;;;;;5112305;28;19966;-81
2022/04/10 09:37:43;;;;;;;;;;;13.60;99.90;;;;;;5116251;27;19916;-81
2022/04/10 09:40:27;;;;;;;;;;;14.00;99.90;;;;;;5113449;28;19920;-82
2022/04/10 09:42:57;;;;;;;;;;;13.70;99.90;;;;;;5119662;27;19923;-81
2022/04/10 09:45:43;;;;;;;;;;;13.70;99.90;;;;;;5124196;27;20371;-81
2022/04/10 09:48:21;;;;;;;;;;;13.80;99.90;;;;;;5125873;27;19915;-81
2022/04/10 09:50:47;;;;;;;;;;;13.30;99.90;;;;;;5108089;27;19941;-80
2022/04/10 09:53:13;;;;;;;;;;;13.10;99.90;;;;;;5130610;27;19915;-80
2022/04/10 09:55:40;;;;;;;;;;;12.80;99.90;;;;;;5120604;27;19968;-81
2022/04/10 09:58:10;;;;;;;;;;;12.30;99.90;;;;;;5120152;27;20423;-81
2022/04/10 10:00:37;;;;;;;;;;;12.40;99.90;;;;;;5128820;27;20371;-81
2022/04/10 10:03:04;;;;;;;;;;;12.70;99.90;;;;;;5112703;27;20371;-81
2022/04/10 10:05:30;;;;;;;;;;;13.00;99.90;;;;;;5108796;28;19979;-81
2022/04/10 10:07:56;;;;;;;;;;;12.60;99.90;;;;;;5130013;27;19923;-81
2022/04/10 10:10:22;;;;;;;;;;;12.50;99.90;;;;;;5127235;27;20004;-81
2022/04/10 10:12:48;;;;;;;;;;;13.20;99.90;;;;;;5119373;27;20386;-81
2022/04/10 10:15:14;;;;;;;;;;;13.40;99.90;;;;;;5127380;27;19967;-81
2022/04/10 10:17:40;;;;;;;;;;;14.00;99.90;;;;;;5117042;27;20010;-80
2022/04/10 10:20:06;;;;;;;;;;;14.20;99.90;;;;;;5132304;27;19926;-81
2022/04/10 10:22:32;;;;;;;;;;;14.30;99.90;;;;;;5115286;27;20007;-82
2022/04/10 10:25:00;;;;;;;;;;;13.90;99.90;;;;;;5132494;27;19967;-81
2022/04/10 10:27:44;;;;;;;;;;;13.30;99.90;;;;;;5129345;27;20022;-82
2022/04/10 10:30:09;;;;;;;;;;;12.90;99.90;;;;;;5111669;28;19915;-82
2022/04/10 10:32:46;;;;;;;;;;;13.00;99.90;;;;;;5114557;27;19919;-81
2022/04/10 10:35:13;;;;;;;;;;;13.40;99.90;;;;;;5129396;27;19923;-82
2022/04/10 10:37:51;;;;;;;;;;;14.20;99.90;;;;;;5123296;27;19919;-81
2022/04/10 10:40:18;;;;;;;;;;;14.40;99.90;;;;;;5125658;27;20397;-82
2022/04/10 10:42:45;;;;;;;;;;;14.20;99.90;;;;;;5110079;28;19990;-81
2022/04/10 10:45:11;;;;;;;;;;;13.80;99.90;;;;;;5119217;27;19924;-82
2022/04/10 10:47:37;;;;;;;;;;;13.50;99.90;;;;;;5100658;27;19915;-82
2022/04/10 10:50:22;;;;;;;;;;;13.80;99.90;;;;;;5126530;27;19922;-81
2022/04/10 10:53:04;;;;;;;;;;;13.70;99.90;;;;;;5131455;27;20340;-82
2022/04/10 10:55:42;;;;;;;;;;;13.60;99.90;;;;;;5121329;27;19916;-84
2022/04/10 10:58:08;;;;;;;;;;;14.00;99.90;;;;;;5120681;27;19916;-83
2022/04/10 11:00:37;;;;;;;;;;;14.50;99.90;;;;;;5129511;27;20405;-83
2022/04/10 11:03:07;;;;;;;;;;;14.90;99.90;;;;;;5119653;27;20290;-83
2022/04/10 11:05:35;;;;;;;;;;;15.30;99.10;;;;;;5125694;27;19972;-83
2022/04/10 11:08:08;;;;;;;;;;;15.40;98.60;;;;;;5114769;27;19922;-82
2022/04/10 11:10:38;;;;;;;;;;;16.00;96.80;;;;;;5108477;27;19984;-81
2022/04/10 11:13:07;;;;;;;;;;;16.20;97.10;;;;;;5121691;27;19915;-81
2022/04/10 11:15:34;;;;;;;;;;;16.30;95.40;;;;;;5125454;27;19915;-82
2022/04/10 11:18:22;;;;;;;;;;;15.60;94.40;;;;;;5119371;27;19916;-81
2022/04/10 11:20:55;;;;;;;;;;;14.80;95.00;;;;;;5128842;27;19916;-81
2022/04/10 11:23:21;;;;;;;;;;;14.90;94.90;;;;;;5123151;27;20002;-81
2022/04/10 11:25:52;;;;;;;;;;;14.90;93.10;;;;;;5122225;27;20359;-82
2022/04/10 11:28:19;;;;;;;;;;;15.20;95.00;;;;;;5122488;27;19972;-82
2022/04/10 11:30:45;;;;;;;;;;;14.70;93.00;;;;;;5126127;27;19915;-82
2022/04/10 11:33:11;;;;;;;;;;;14.80;91.20;;;;;;5111228;27;20337;-81
2022/04/10 11:35:38;;;;;;;;;;;15.20;91.10;;;;;;5115060;27;19959;-82
2022/04/10 11:38:08;;;;;;;;;;;15.90;90.50;;;;;;5128869;27;19915;-82
2022/04/10 11:40:38;;;;;;;;;;;16.00;93.60;;;;;;5118516;27;19937;-81
2022/04/10 11:43:05;;;;;;;;;;;16.10;92.00;;;;;;5121613;27;20256;-82
2022/04/10 11:45:32;;;;;;;;;;;16.00;91.60;;;;;;5130293;27;19942;-82
2022/04/10 11:47:57;;;;;;;;;;;16.40;91.80;;;;;;5130257;27;20002;-82
2022/04/10 11:50:24;;;;;;;;;;;16.30;91.60;;;;;;5115613;27;20383;-82
2022/04/10 11:53:10;;;;;;;;;;;16.50;93.30;;;;;;5130434;27;19915;-82
2022/04/10 11:55:35;;;;;;;;;;;15.60;92.00;;;;;;5130229;27;19915;-82
2022/04/10 11:58:21;;;;;;;;;;;15.00;93.70;;;;;;5113018;27;19930;-82
2022/04/10 12:00:53;;;;;;;;;;;14.70;94.00;;;;;;5123232;27;19915;-81
2022/04/10 12:03:20;;;;;;;;;;;15.20;94.90;;;;;;5129895;27;19919;-82
2022/04/10 12:05:46;;;;;;;;;;;16.00;93.30;;;;;;5124295;27;19920;-83
2022/04/10 12:08:12;;;;;;;;;;;16.00;93.30;;;;;;5128724;27;19926;-81
2022/04/10 12:10:37;;;;;;;;;;;16.30;93.30;;;;;;5105652;28;19915;-82
2022/04/10 12:13:04;;;;;;;;;;;15.80;93.10;;;;;;5130077;27;20297;-83
2022/04/10 12:15:29;;;;;;;;;;;15.00;92.10;;;;;;5111279;28;19915;-82
2022/04/10 12:18:13;;;;;;;;;;;14.90;93.70;;;;;;5129031;27;19922;-80
2022/04/10 12:20:40;;;;;;;;;;;15.50;93.80;;;;;;5111763;27;19923;-83
2022/04/10 12:23:24;;;;;;;;;;;15.70;93.30;;;;;;5117376;27;19924;-85
2022/04/10 12:28:34;;;;;;;5.13;0.88;;;16.90;92.40;;;;;;5175844;27;20142;-85
2022/04/10 12:31:01;;;;;;;3.30;0.90;;;16.80;91.40;;;;;;5154170;27;20034;-86
2022/04/10 12:33:28;;;;;;;5.95;1.02;;;17.10;92.80;;;;;;5145468;27;20034;-86
2022/04/10 12:35:54;;;;;;;5.47;0.93;;;16.80;91.90;;;;;;5158235;27;20505;-85
2022/04/10 12:38:19;;;;;;;5.05;0.70;;;16.20;93.40;;;;;;5141125;27;20065;-84
2022/04/10 12:40:45;;;;;;;4.80;0.90;;;15.80;93.60;;;;;;5126480;27;20164;-85
2022/04/10 12:43:14;;;;;;;1.63;0.60;;;15.00;93.50;;;;;;5141809;27;20452;-84
2022/04/10 12:45:42;;;;;;;5.07;0.90;;;14.50;94.00;;;;;;5152642;27;20038;-85
2022/04/10 12:48:25;;;;;;;3.25;1.00;;;14.10;94.70;;;;;;5161459;27;20046;-85
2022/04/10 12:51:11;;;;;;;4.25;0.98;;;14.20;94.40;;;;;;5155513;27;20082;-87
2022/04/10 12:53:38;;;;;;;5.10;1.55;;;14.50;94.50;;;;;;5136660;27;20030;-87
2022/04/10 12:56:04;;;;;;;3.17;0.90;;;14.40;94.50;;;;;;5159220;27;20090;-84
2022/04/10 12:58:50;;;;;;;3.55;1.00;;;14.90;94.80;;;;;;5146502;27;20038;-84
2022/04/10 13:01:32;;;;;;;4.80;1.00;;;15.20;94.60;;;;;;5169596;27;20120;-85
2022/04/10 13:04:00;;;;;;;4.57;0.68;;;15.50;95.40;;;;;;5152592;27;20045;-83
2022/04/10 13:06:50;;;;;;;2.40;0.70;;;15.80;94.00;;;;;;5152739;27;20146;-82
2022/04/10 13:09:16;;;;;;;4.32;0.90;;;16.10;92.80;;;;;;5153420;27;20389;-82
2022/04/10 13:11:42;;;;;;;3.22;0.88;;;16.10;92.30;;;;;;5155938;27;20038;-81
2022/04/10 13:14:10;;;;;;;4.57;0.77;;;16.00;92.10;;;;;;5151746;27;20037;-82
2022/04/10 13:16:41;;;;;;;2.58;0.57;;;16.20;91.40;;;;;;5149421;27;20530;-84
2022/04/10 13:19:11;;;;;;;3.88;0.73;;;15.90;91.60;;;;;;5166983;27;20069;-81
2022/04/10 13:21:38;;;;;;;3.67;0.80;;;15.70;92.90;;;;;;5153873;27;20065;-82
2022/04/10 13:24:05;;;;;;;6.13;0.65;;;15.60;93.00;;;;;;5165829;27;20117;-82
2022/04/10 13:26:33;;;;;;;3.15;0.90;;;15.40;92.90;;;;;;5170698;27;20114;-84
2022/04/10 13:29:01;;;;;;;3.65;0.70;;;15.20;93.80;;;;;;5165591;27;20027;-80
2022/04/10 13:31:27;;;;;;;5.20;0.77;;;15.60;94.90;;;;;;5141499;27;20042;-85
2022/04/10 13:33:54;;;;;;;4.13;0.98;;;15.90;92.20;;;;;;5149445;27;20038;-85
2022/04/10 13:36:20;;;;;;;4.32;0.60;;;15.70;92.40;;;;;;5174661;27;20073;-84
2022/04/10 13:38:46;;;;;;;1.98;0.60;;;15.60;92.10;;;;;;5146648;27;20442;-84
2022/04/10 13:41:11;;;;;;;3.30;0.77;;;15.30;91.70;;;;;;5136528;27;20042;-83
2022/04/10 13:43:40;;;;;;;2.70;0.50;;;14.90;92.10;;;;;;5139005;27;20379;-84
2022/04/10 13:46:06;;;;;;;7.07;1.05;;;14.40;93.60;;;;;;5144302;27;20030;-84
2022/04/10 13:48:32;;;;;;;5.25;0.98;;;14.40;94.40;;;;;;5134211;27;20439;-82
2022/04/10 13:50:58;;;;;;;6.25;1.10;;;14.00;96.40;;;;;;5130609;27;20126;-84
2022/04/10 13:53:24;;;;;;;3.80;0.80;;;13.90;96.70;;;;;;5136352;27;20370;-82
2022/04/10 13:55:50;;;;;;;3.05;0.70;;;13.80;97.30;;;;;;5151605;27;20041;-83
2022/04/10 13:58:16;;;;;;;2.65;0.93;;;13.70;96.80;;;;;;5124344;27;20038;-82
2022/04/10 14:00:41;;;;;;;6.75;1.00;;;13.70;97.50;;;;;;5135729;27;20084;-83
2022/04/10 14:03:07;;;;;;;4.10;1.02;;;14.00;95.60;;;;;;5124678;27;20402;-84
2022/04/10 14:05:33;;;;;;;5.47;1.00;;;13.90;95.90;;;;;;5128562;27;20045;-84
2022/04/10 14:07:59;;;;;;;7.90;1.13;;;13.90;95.80;;;;;;5100743;27;20110;-84
2022/04/10 14:10:26;;;;;;;2.92;0.50;;;14.00;95.90;;;;;;5146488;27;20042;-84
2022/04/10 14:12:52;;;;;;;5.25;1.25;;;13.80;96.10;;;;;;5151059;27;20497;-82
2022/04/10 14:15:17;;;;;;;3.85;0.70;;;13.60;97.60;;;;;;5148526;27;20118;-83